createdAt,value
2022-11-21T00:00:19.699Z,100.00
2022-11-21T00:02:47.140Z,99.54
2022-11-21T00:05:14.803Z,98.89
2022-11-21T00:07:42.273Z,99.18
2022-11-21T00:10:11.393Z,98.57
2022-11-21T00:12:38.969Z,98.33
2022-11-21T00:15:07.610Z,99.09
2022-11-21T00:17:35.854Z,98.90
2022-11-21T00:20:03.267Z,98.39
2022-11-21T00:22:31.908Z,98.64
2022-11-21T00:24:59.898Z,98.22
2022-11-21T00:27:28.685Z,99.06
2022-11-21T00:29:56.139Z,97.65
2022-11-21T00:32:23.594Z,97.85
2022-11-21T00:34:51.054Z,98.23
2022-11-21T00:37:18.495Z,98.69
2022-11-21T00:39:45.921Z,99.90
2022-11-21T00:42:13.374Z,100.00
2022-11-21T00:44:42.216Z,99.28
2022-11-21T00:47:09.620Z,99.07
2022-11-21T00:49:37.007Z,99.32
2022-11-21T00:52:04.728Z,98.82
2022-11-21T00:54:32.131Z,99.33
2022-11-21T00:56:59.673Z,99.24
2022-11-21T00:59:27.158Z,98.51
2022-11-21T01:01:55.898Z,97.55
2022-11-21T01:04:23.458Z,97.71
2022-11-21T01:06:50.876Z,97.90
2022-11-21T01:09:18.291Z,97.95
2022-11-21T01:11:46.021Z,96.78
2022-11-21T01:14:13.423Z,97.16
2022-11-21T01:16:40.855Z,97.06
2022-11-21T01:19:09.829Z,96.99
2022-11-21T01:21:37.287Z,96.46
2022-11-21T01:24:05.066Z,96.42
2022-11-21T01:26:33.501Z,96.88
2022-11-21T01:29:01.743Z,97.06
2022-11-21T01:31:31.231Z,97.33
2022-11-21T01:34:00.014Z,97.55
2022-11-21T01:36:30.843Z,96.61
2022-11-21T01:38:59.556Z,97.15
2022-11-21T01:41:31.066Z,97.90
2022-11-21T01:43:58.684Z,97.10
2022-11-21T01:46:27.032Z,96.83
2022-11-21T01:48:56.641Z,96.89
2022-11-21T01:51:27.205Z,96.16
2022-11-21T01:53:59.229Z,96.11
2022-11-21T01:56:28.154Z,95.96
2022-11-21T01:58:58.504Z,96.19
2022-11-21T02:01:26.025Z,96.04
2022-11-21T02:03:54.040Z,95.52
2022-11-21T02:06:21.927Z,95.84
2022-11-21T02:08:49.486Z,95.10
2022-11-21T02:11:23.486Z,95.57
2022-11-21T02:13:50.930Z,94.82
2022-11-21T02:16:18.367Z,95.51
2022-11-21T02:18:45.810Z,95.64
2022-11-21T02:21:19.215Z,94.61
2022-11-21T02:23:50.842Z,95.68
2022-11-21T02:26:19.695Z,95.33
2022-11-21T02:28:47.171Z,95.07
2022-11-21T02:31:14.603Z,95.80
2022-11-21T02:33:42.014Z,94.85
2022-11-21T02:36:38.776Z,94.78
2022-11-21T02:39:07.105Z,95.38
2022-11-21T02:41:36.695Z,95.04
2022-11-21T02:44:06.590Z,94.48
2022-11-21T02:46:34.822Z,95.16
2022-11-21T02:49:05.573Z,95.65
2022-11-21T02:51:33.029Z,94.64
2022-11-21T02:54:00.427Z,94.79
2022-11-21T02:56:28.005Z,94.57
2022-11-21T02:58:57.234Z,94.44
2022-11-21T03:01:24.823Z,94.09
2022-11-21T03:03:52.239Z,94.91
2022-11-21T03:06:19.859Z,94.37
2022-11-21T03:08:47.457Z,94.68
2022-11-21T03:11:14.883Z,95.52
2022-11-21T03:13:42.279Z,96.38
2022-11-21T03:16:11.069Z,95.96
2022-11-21T03:18:38.492Z,95.84
2022-11-21T03:21:05.911Z,95.03
2022-11-21T03:23:33.313Z,94.75
2022-11-21T03:26:00.746Z,95.78
2022-11-21T03:28:29.206Z,95.40
2022-11-21T03:30:56.645Z,94.79
2022-11-21T03:33:25.403Z,94.32
2022-11-21T03:35:52.804Z,95.50
2022-11-21T03:38:20.199Z,95.23
2022-11-21T03:40:47.586Z,94.02
2022-11-21T03:43:14.987Z,95.04
2022-11-21T03:45:42.407Z,94.38
2022-11-21T03:48:09.829Z,94.78
2022-11-21T03:50:38.615Z,93.95
2022-11-21T03:53:07.023Z,94.26
2022-11-21T03:55:34.440Z,94.15
2022-11-21T03:58:01.828Z,94.10
2022-11-21T04:00:29.251Z,94.12
2022-11-21T04:02:56.667Z,94.46
2022-11-21T04:05:24.088Z,94.24
2022-11-21T04:07:53.888Z,94.89
2022-11-21T04:10:21.876Z,94.66
2022-11-21T04:12:49.290Z,94.44
2022-11-21T04:15:17.019Z,94.05
2022-11-21T04:17:44.485Z,94.27
2022-11-21T04:20:12.554Z,94.54
2022-11-21T04:22:39.979Z,94.59
2022-11-21T04:25:09.369Z,94.42
2022-11-21T04:27:36.967Z,93.92
2022-11-21T04:30:05.114Z,93.78
2022-11-21T04:32:32.536Z,94.75
2022-11-21T04:34:59.923Z,94.37
2022-11-21T04:37:27.448Z,95.15
2022-11-21T04:39:54.848Z,94.14
2022-11-21T04:42:23.638Z,94.09
2022-11-21T04:44:51.051Z,94.19
2022-11-21T04:47:18.450Z,93.75
2022-11-21T04:49:45.881Z,94.46
2022-11-21T04:52:14.328Z,94.22
2022-11-21T04:54:41.759Z,93.88
2022-11-21T04:57:09.189Z,93.91
2022-11-21T04:59:37.959Z,94.27
2022-11-21T05:02:05.379Z,93.96
2022-11-21T05:04:32.822Z,94.69
2022-11-21T05:07:00.292Z,95.07
2022-11-21T05:09:27.819Z,94.96
2022-11-21T05:12:12.671Z,94.79
2022-11-21T05:14:41.434Z,93.90
2022-11-21T05:17:08.957Z,93.90
2022-11-21T05:19:36.396Z,94.16
2022-11-21T05:22:03.888Z,93.70
2022-11-21T05:24:31.307Z,94.03
2022-11-21T05:26:58.888Z,93.64
2022-11-21T05:29:28.218Z,93.67
2022-11-21T05:31:57.262Z,94.69
2022-11-21T05:34:24.675Z,94.03
2022-11-21T05:36:56.932Z,93.86
2022-11-21T05:39:24.442Z,93.91
2022-11-21T05:41:52.308Z,95.17
2022-11-21T05:44:18.894Z,95.47
2022-11-21T05:46:46.502Z,95.29
2022-11-21T05:49:15.444Z,94.13
2022-11-21T05:51:42.829Z,94.60
2022-11-21T05:54:13.552Z,93.42
2022-11-21T05:56:40.996Z,93.19
2022-11-21T05:59:09.626Z,92.75
2022-11-21T06:01:54.668Z,93.00
2022-11-21T06:04:23.502Z,93.27
2022-11-21T06:06:50.955Z,91.95
2022-11-21T06:09:18.515Z,92.13
2022-11-21T06:11:45.904Z,91.87
2022-11-21T06:14:13.290Z,91.96
2022-11-21T06:16:40.703Z,91.97
2022-11-21T06:19:08.275Z,91.98
2022-11-21T06:21:37.279Z,91.50
2022-11-21T06:24:05.492Z,92.30
2022-11-21T06:26:32.873Z,93.13
2022-11-21T06:29:00.287Z,93.11
2022-11-21T06:31:28.542Z,93.43
2022-11-21T06:33:57.396Z,94.27
2022-11-21T06:36:25.319Z,94.25
2022-11-21T06:38:55.929Z,94.73
2022-11-21T06:41:24.786Z,95.83
2022-11-21T06:43:52.239Z,95.29
2022-11-21T06:46:19.705Z,95.15
2022-11-21T06:48:47.159Z,94.88
2022-11-21T06:51:17.982Z,94.85
2022-11-21T06:53:45.987Z,94.86
2022-11-21T06:56:15.771Z,94.91
2022-11-21T06:58:43.270Z,96.23
2022-11-21T07:01:11.450Z,95.96
2022-11-21T07:03:38.905Z,95.79
2022-11-21T07:06:07.204Z,99.29
2022-11-21T07:08:36.327Z,99.67
2022-11-21T07:13:53.431Z,99.28
2022-11-21T07:16:20.854Z,99.72
2022-11-21T07:18:48.281Z,100.00
2022-11-21T07:21:15.747Z,100.00
2022-11-21T07:23:43.167Z,100.00
2022-11-21T07:26:11.258Z,100.00
2022-11-21T07:28:39.100Z,99.14
2022-11-21T07:31:13.554Z,98.54
2022-11-21T07:33:42.997Z,98.22
2022-11-21T07:36:10.499Z,99.04
2022-11-21T07:38:37.912Z,98.88
2022-11-21T07:41:05.351Z,98.56
2022-11-21T07:43:32.784Z,98.25
2022-11-21T07:46:00.301Z,97.87
2022-11-21T07:48:29.070Z,96.72
2022-11-21T07:50:56.520Z,95.96
2022-11-21T07:53:26.831Z,96.21
2022-11-21T07:55:54.237Z,95.89
2022-11-21T07:58:21.643Z,96.17
2022-11-21T08:00:49.111Z,96.10
2022-11-21T08:03:16.574Z,98.16
2022-11-21T08:05:45.625Z,99.53
2022-11-21T08:08:13.918Z,100.00
2022-11-21T08:10:43.118Z,100.00
2022-11-21T08:13:11.050Z,100.00
2022-11-21T08:15:38.789Z,100.00
2022-11-21T08:18:10.500Z,100.00
2022-11-21T08:20:38.294Z,100.00
2022-11-21T08:23:07.466Z,100.00
2022-11-21T08:25:35.076Z,100.00
2022-11-21T08:28:03.465Z,100.00
2022-11-21T08:30:31.029Z,100.00
2022-11-21T08:32:58.593Z,100.00
2022-11-21T08:35:26.036Z,100.00
2022-11-21T08:37:57.047Z,100.00
2022-11-21T08:40:26.627Z,100.00
2022-11-21T08:42:57.638Z,100.00
2022-11-21T08:45:25.652Z,100.00
2022-11-21T08:47:53.674Z,100.00
2022-11-21T08:50:21.343Z,100.00
2022-11-21T08:52:48.767Z,100.00
2022-11-21T08:55:16.703Z,100.00
2022-11-21T08:57:45.501Z,100.00
2022-11-21T09:00:14.183Z,100.00
2022-11-21T09:02:41.723Z,100.00
2022-11-21T09:05:10.319Z,99.71
2022-11-21T09:07:37.800Z,99.62
2022-11-21T09:10:06.267Z,99.13
2022-11-21T09:12:33.900Z,98.24
2022-11-21T09:15:20.371Z,99.42
2022-11-21T09:18:07.457Z,98.19
2022-11-21T09:20:39.850Z,97.71
2022-11-21T09:23:08.106Z,97.16
2022-11-21T09:25:35.701Z,97.11
2022-11-21T09:28:03.519Z,96.94
2022-11-21T09:30:32.316Z,96.62
2022-11-21T09:33:01.857Z,97.42
2022-11-21T09:35:32.502Z,96.07
2022-11-21T09:38:01.182Z,95.32
2022-11-21T09:40:30.026Z,95.36
2022-11-21T09:43:11.331Z,96.57
2022-11-21T09:45:43.251Z,97.66
2022-11-21T09:48:13.280Z,97.87
2022-11-21T09:50:43.635Z,97.05
2022-11-21T09:53:13.150Z,97.13
2022-11-21T09:55:47.361Z,97.12
2022-11-21T09:58:22.857Z,97.13
2022-11-21T10:00:52.847Z,97.61
2022-11-21T10:03:22.633Z,97.48
2022-11-21T10:05:53.520Z,95.92
2022-11-21T10:08:29.111Z,97.48
2022-11-21T10:10:59.446Z,97.87
2022-11-21T10:13:35.934Z,98.86
2022-11-21T10:16:10.375Z,97.96
2022-11-21T10:18:58.629Z,97.92
2022-11-21T10:21:37.679Z,98.59
2022-11-21T10:24:18.804Z,97.64
2022-11-21T10:26:51.723Z,96.72
2022-11-21T10:29:21.479Z,96.55
2022-11-21T10:31:50.509Z,96.53
2022-11-21T10:34:20.916Z,96.22
2022-11-21T10:36:50.803Z,95.24
2022-11-21T10:39:21.236Z,94.84
2022-11-21T10:41:51.751Z,95.26
2022-11-21T10:44:44.059Z,95.66
2022-11-21T10:47:27.144Z,95.08
2022-11-21T10:50:01.038Z,95.13
2022-11-21T10:52:32.074Z,94.91
2022-11-21T10:55:09.744Z,95.47
2022-11-21T10:57:42.350Z,95.47
2022-11-21T11:00:20.071Z,96.79
2022-11-21T11:03:11.132Z,96.28
2022-11-21T11:05:39.207Z,96.88
2022-11-21T11:08:08.990Z,97.58
2022-11-21T11:10:38.184Z,97.71
2022-11-21T11:13:45.850Z,97.29
2022-11-21T11:16:17.140Z,97.59
2022-11-21T11:18:51.634Z,98.16
2022-11-21T11:21:21.388Z,97.70
2022-11-21T11:23:49.636Z,97.48
2022-11-21T11:26:23.252Z,97.96
2022-11-21T11:28:51.116Z,98.76
2022-11-21T11:31:18.535Z,98.43
2022-11-21T11:33:55.535Z,96.72
2022-11-21T11:36:32.603Z,97.04
2022-11-21T11:39:00.929Z,96.94
2022-11-21T11:42:17.504Z,96.51
2022-11-21T11:45:10.480Z,94.95
2022-11-21T11:47:50.253Z,94.85
2022-11-21T11:50:28.237Z,94.29
2022-11-21T11:53:02.784Z,95.80
2022-11-21T11:55:37.874Z,96.22
2022-11-21T11:58:09.096Z,95.15
2022-11-21T12:00:41.690Z,94.75
2022-11-21T12:03:14.821Z,94.18
2022-11-21T12:05:52.539Z,94.04
2022-11-21T12:08:41.781Z,94.01
2022-11-21T12:11:44.498Z,94.50
2022-11-21T12:14:40.224Z,95.60
2022-11-21T12:17:09.987Z,96.55
2022-11-21T12:19:38.452Z,96.98
2022-11-21T12:22:11.450Z,97.46
2022-11-21T12:24:42.965Z,97.07
2022-11-21T12:27:22.159Z,98.34
2022-11-21T12:29:59.776Z,98.89
2022-11-21T12:32:36.660Z,99.27
2022-11-21T12:35:22.000Z,98.83
2022-11-21T12:37:56.187Z,98.07
2022-11-21T12:40:30.992Z,99.14
2022-11-21T12:43:08.950Z,99.51
2022-11-21T12:45:38.399Z,99.68
2022-11-21T12:48:31.221Z,99.82
2022-11-21T12:51:28.331Z,100.00
2022-11-21T12:54:20.595Z,100.00
2022-11-21T12:56:50.703Z,100.00
2022-11-21T12:59:20.093Z,100.00
2022-11-21T13:01:52.221Z,100.00
2022-11-21T13:04:22.934Z,100.00
2022-11-21T13:06:51.100Z,100.00
2022-11-21T13:09:21.416Z,100.00
2022-11-21T13:12:01.194Z,100.00
2022-11-21T13:14:34.516Z,100.00
2022-11-21T13:17:08.092Z,100.00
2022-11-21T13:19:42.576Z,100.00
2022-11-21T13:22:43.311Z,100.00
2022-11-21T13:25:12.903Z,100.00
2022-11-21T13:27:41.187Z,100.00
2022-11-21T13:30:27.505Z,100.00
2022-11-21T13:32:55.740Z,100.00
2022-11-21T13:36:06.007Z,100.00
2022-11-21T13:39:11.585Z,100.00
2022-11-21T13:44:41.624Z,100.00
2022-11-21T13:47:13.122Z,100.00
2022-11-21T13:49:47.373Z,100.00
2022-11-21T13:52:24.290Z,100.00
2022-11-21T13:55:14.480Z,100.00
2022-11-21T13:57:57.336Z,100.00
2022-11-21T14:00:31.228Z,100.00
2022-11-21T14:03:17.899Z,100.00
2022-11-21T14:06:06.491Z,100.00
2022-11-21T14:08:34.303Z,100.00
2022-11-21T14:11:20.175Z,100.00
2022-11-21T14:13:49.147Z,100.00
2022-11-21T14:16:26.083Z,100.00
2022-11-21T14:18:53.930Z,100.00
2022-11-21T14:21:26.407Z,100.00
2022-11-21T14:23:54.463Z,100.00
2022-11-21T14:26:22.698Z,100.00
2022-11-21T14:28:50.209Z,100.00
2022-11-21T14:31:17.659Z,100.00
2022-11-21T14:33:48.358Z,100.00
2022-11-21T14:36:17.372Z,100.00
2022-11-21T14:38:51.014Z,100.00
2022-11-21T14:41:28.661Z,100.00
2022-11-21T14:44:04.169Z,100.00
2022-11-21T14:46:32.932Z,100.00
2022-11-21T14:49:19.207Z,100.00
2022-11-21T14:51:48.915Z,100.00
2022-11-21T14:54:19.111Z,100.00
2022-11-21T14:56:48.194Z,100.00
2022-11-21T14:59:25.036Z,100.00
2022-11-21T15:01:57.495Z,100.00
2022-11-21T15:04:31.772Z,100.00
2022-11-21T15:06:59.623Z,100.00
2022-11-21T15:12:20.582Z,100.00
2022-11-21T15:14:49.480Z,100.00
2022-11-21T15:17:20.336Z,100.00
2022-11-21T15:20:09.962Z,100.00
2022-11-21T15:22:41.076Z,100.00
2022-11-21T15:25:10.434Z,100.00
2022-11-21T15:27:37.859Z,100.00
2022-11-21T15:30:16.712Z,100.00
2022-11-21T15:32:59.600Z,100.00
2022-11-21T15:35:47.420Z,100.00
2022-11-21T15:38:19.805Z,100.00
2022-11-21T15:41:04.937Z,100.00
2022-11-21T15:43:37.429Z,100.00
2022-11-21T15:46:06.268Z,100.00
2022-11-21T15:48:33.743Z,100.00
2022-11-21T15:51:02.550Z,100.00
2022-11-21T15:53:30.011Z,100.00
2022-11-21T15:55:57.411Z,100.00
2022-11-21T15:58:24.846Z,100.00
2022-11-21T16:00:52.354Z,100.00
2022-11-21T16:03:19.807Z,100.00
2022-11-21T16:05:48.060Z,100.00
2022-11-21T16:08:16.924Z,100.00
2022-11-21T16:10:48.187Z,100.00
2022-11-21T16:13:16.595Z,100.00
2022-11-21T16:15:44.020Z,100.00
2022-11-21T16:18:11.428Z,100.00
2022-11-21T16:20:38.836Z,100.00
2022-11-21T16:23:06.352Z,100.00
2022-11-21T16:25:35.137Z,100.00
2022-11-21T16:28:06.982Z,100.00
2022-11-21T16:30:34.867Z,100.00
2022-11-21T16:33:03.085Z,100.00
2022-11-21T16:35:30.519Z,100.00
2022-11-21T16:37:58.015Z,100.00
2022-11-21T16:40:27.898Z,100.00
2022-11-21T16:43:08.723Z,100.00
2022-11-21T16:45:36.227Z,100.00
2022-11-21T16:48:03.847Z,100.00
2022-11-21T16:50:31.484Z,100.00
2022-11-21T16:52:59.257Z,100.00
2022-11-21T16:55:26.756Z,100.00
2022-11-21T16:57:54.828Z,100.00
2022-11-21T17:00:24.253Z,100.00
2022-11-21T17:02:51.670Z,100.00
2022-11-21T17:05:19.221Z,100.00
2022-11-21T17:07:47.331Z,100.00
2022-11-21T17:10:15.345Z,100.00
2022-11-21T17:12:44.038Z,100.00
2022-11-21T17:15:13.894Z,100.00
2022-11-21T17:17:42.980Z,100.00
2022-11-21T17:20:11.366Z,100.00
2022-11-21T17:22:39.025Z,100.00
2022-11-21T17:25:07.450Z,100.00
2022-11-21T17:27:34.960Z,100.00
2022-11-21T17:30:02.494Z,100.00
2022-11-21T17:32:29.984Z,100.00
2022-11-21T17:34:58.889Z,100.00
2022-11-21T17:37:26.323Z,100.00
2022-11-21T17:39:54.099Z,100.00
2022-11-21T17:42:21.504Z,100.00
2022-11-21T17:44:49.144Z,100.00
2022-11-21T17:47:16.686Z,100.00
2022-11-21T17:49:44.102Z,100.00
2022-11-21T17:52:12.947Z,100.00
2022-11-21T17:54:40.396Z,100.00
2022-11-21T17:57:08.015Z,100.00
2022-11-21T17:59:38.356Z,100.00
2022-11-21T18:02:05.943Z,100.00
2022-11-21T18:04:34.344Z,100.00
2022-11-21T18:07:01.799Z,100.00
2022-11-21T18:09:30.822Z,100.00
2022-11-21T18:11:58.556Z,100.00
2022-11-21T18:14:26.592Z,100.00
2022-11-21T18:16:54.970Z,100.00
2022-11-21T18:19:22.861Z,100.00
2022-11-21T18:21:51.671Z,100.00
2022-11-21T18:24:19.292Z,100.00
2022-11-21T18:26:48.058Z,100.00
2022-11-21T18:32:03.163Z,100.00
2022-11-21T18:34:30.659Z,100.00
2022-11-21T18:36:58.078Z,100.00
2022-11-21T18:39:27.072Z,100.00
2022-11-21T18:41:55.976Z,100.00
2022-11-21T18:44:23.570Z,100.00
2022-11-21T18:46:51.228Z,100.00
2022-11-21T18:49:18.852Z,100.00
2022-11-21T18:51:46.454Z,100.00
2022-11-21T18:54:13.887Z,100.00
2022-11-21T18:56:41.539Z,100.00
2022-11-21T18:59:10.777Z,100.00
2022-11-21T19:01:39.308Z,100.00
2022-11-21T19:04:07.111Z,100.00
2022-11-21T19:06:35.329Z,100.00
2022-11-21T19:09:02.895Z,100.00
2022-11-21T19:11:30.842Z,100.00
2022-11-21T19:13:59.130Z,100.00
2022-11-21T19:16:30.803Z,100.00
2022-11-21T19:21:47.063Z,100.00
2022-11-21T19:24:15.994Z,100.00
2022-11-21T19:26:43.811Z,100.00
2022-11-21T19:29:12.048Z,100.00
2022-11-21T19:31:45.752Z,100.00
2022-11-21T19:34:13.939Z,100.00
2022-11-21T19:36:41.739Z,100.00
2022-11-21T19:39:09.835Z,100.00
2022-11-21T19:41:37.469Z,100.00
2022-11-21T19:44:05.311Z,100.00
2022-11-21T19:46:34.569Z,100.00
2022-11-21T19:49:04.395Z,100.00
2022-11-21T19:51:33.757Z,100.00
2022-11-21T19:54:02.815Z,100.00
2022-11-21T19:56:30.481Z,100.00
2022-11-21T19:58:58.555Z,100.00
2022-11-21T20:01:31.039Z,100.00
2022-11-21T20:04:00.207Z,100.00
2022-11-21T20:06:31.057Z,100.00
2022-11-21T20:09:00.131Z,100.00
2022-11-21T20:11:28.742Z,100.00
2022-11-21T20:13:56.231Z,100.00
2022-11-21T20:16:25.919Z,100.00
2022-11-21T20:18:56.826Z,100.00
2022-11-21T20:21:24.701Z,100.00
2022-11-21T20:23:53.815Z,100.00
2022-11-21T20:26:22.607Z,100.00
2022-11-21T20:28:51.332Z,100.00
2022-11-21T20:31:21.008Z,100.00
2022-11-21T20:33:50.139Z,100.00
2022-11-21T20:36:21.816Z,100.00
2022-11-21T20:38:50.940Z,100.00
2022-11-21T20:41:20.052Z,100.00
2022-11-21T20:46:35.483Z,100.00
2022-11-21T20:49:03.115Z,100.00
2022-11-21T20:54:20.835Z,100.00
2022-11-21T20:56:49.613Z,100.00
2022-11-21T20:59:17.100Z,100.00
2022-11-21T21:01:44.567Z,100.00
2022-11-21T21:04:12.151Z,100.00
2022-11-21T21:06:39.942Z,100.00
2022-11-21T21:09:07.480Z,100.00
2022-11-21T21:11:51.545Z,100.00
2022-11-21T21:14:21.861Z,100.00
2022-11-21T21:16:49.573Z,100.00
2022-11-21T21:19:17.321Z,100.00
2022-11-21T21:21:44.847Z,100.00
2022-11-21T21:24:12.972Z,100.00
2022-11-21T21:26:43.404Z,100.00
2022-11-21T21:29:12.691Z,100.00
2022-11-21T21:31:45.506Z,100.00
2022-11-21T21:34:17.355Z,100.00
2022-11-21T21:36:44.777Z,100.00
2022-11-21T21:39:12.354Z,100.00
2022-11-21T21:41:44.182Z,100.00
2022-11-21T21:44:11.596Z,100.00
2022-11-21T21:46:39.006Z,100.00
2022-11-21T21:49:07.756Z,100.00
2022-11-21T21:51:36.910Z,100.00
2022-11-21T21:54:04.574Z,100.00
2022-11-21T21:56:32.038Z,100.00
2022-11-21T21:58:59.884Z,100.00
2022-11-21T22:01:29.509Z,100.00
2022-11-21T22:03:58.446Z,100.00
2022-11-21T22:06:27.550Z,100.00
2022-11-21T22:08:55.911Z,100.00
2022-11-21T22:11:24.966Z,100.00
2022-11-21T22:13:54.043Z,100.00
2022-11-21T22:16:21.705Z,100.00
2022-11-21T22:18:49.281Z,100.00
2022-11-21T22:21:17.963Z,100.00
2022-11-21T22:24:17.309Z,100.00
2022-11-21T22:26:34.684Z,100.00
2022-11-21T22:29:02.169Z,100.00
2022-11-21T22:31:31.184Z,100.00
2022-11-21T22:33:58.705Z,100.00
2022-11-21T22:36:26.606Z,100.00
2022-11-21T22:38:55.847Z,100.00
2022-11-21T22:41:24.343Z,100.00
2022-11-21T22:43:53.380Z,100.00
2022-11-21T22:46:21.386Z,100.00
2022-11-21T22:48:49.299Z,100.00
2022-11-21T22:51:19.402Z,100.00
2022-11-21T22:53:49.645Z,100.00
2022-11-21T22:56:20.026Z,100.00
2022-11-21T22:58:48.151Z,100.00
2022-11-21T23:01:17.349Z,100.00
2022-11-21T23:03:45.327Z,100.00
2022-11-21T23:06:14.263Z,100.00
2022-11-21T23:08:42.407Z,100.00
2022-11-21T23:11:11.564Z,100.00
2022-11-21T23:13:42.514Z,100.00
2022-11-21T23:16:10.811Z,100.00
2022-11-21T23:18:38.466Z,100.00
2022-11-21T23:21:06.283Z,100.00
2022-11-21T23:23:33.728Z,100.00
2022-11-21T23:26:01.450Z,100.00
2022-11-21T23:28:29.063Z,100.00
2022-11-21T23:30:58.051Z,100.00
2022-11-21T23:33:25.582Z,100.00
2022-11-21T23:35:53.008Z,100.00
2022-11-21T23:38:20.696Z,100.00
2022-11-21T23:40:48.800Z,100.00
2022-11-21T23:43:16.772Z,100.00
2022-11-21T23:45:45.244Z,100.00
2022-11-21T23:48:13.981Z,100.00
2022-11-21T23:50:41.501Z,100.00
2022-11-21T23:53:09.758Z,100.00
2022-11-21T23:55:37.357Z,100.00
2022-11-21T23:58:05.029Z,100.00
